createdAt,value
2023-11-30T00:00:16.012Z,53
2023-11-30T00:01:22.149Z,53
2023-11-30T00:02:28.244Z,53
2023-11-30T00:03:34.361Z,53
2023-11-30T00:04:40.487Z,53
2023-11-30T00:05:46.656Z,53
2023-11-30T00:06:52.699Z,53
2023-11-30T00:07:58.810Z,53
2023-11-30T00:09:04.926Z,53
2023-11-30T00:10:11.039Z,53
2023-11-30T00:11:16.169Z,53
2023-11-30T00:12:22.342Z,53
2023-11-30T00:13:28.440Z,53
2023-11-30T00:14:34.505Z,53
2023-11-30T00:15:40.630Z,53
2023-11-30T00:16:46.735Z,53
2023-11-30T00:17:53.005Z,53
2023-11-30T00:18:59.102Z,53
2023-11-30T00:20:05.074Z,53
2023-11-30T00:21:11.198Z,53
2023-11-30T00:22:17.401Z,53
2023-11-30T00:23:23.728Z,53
2023-11-30T00:24:29.554Z,53
2023-11-30T00:25:34.665Z,53
2023-11-30T00:26:40.775Z,53
2023-11-30T00:27:46.897Z,53
2023-11-30T00:28:53.079Z,53
2023-11-30T00:29:59.132Z,53
2023-11-30T00:31:05.227Z,53
2023-11-30T00:32:11.543Z,53
2023-11-30T00:33:17.461Z,53
2023-11-30T00:34:23.700Z,53
2023-11-30T00:35:29.696Z,53
2023-11-30T00:36:35.802Z,53
2023-11-30T00:37:42.042Z,53
2023-11-30T00:39:54.149Z,53
2023-11-30T00:40:59.310Z,53
2023-11-30T00:42:05.384Z,53
2023-11-30T00:43:11.547Z,53
2023-11-30T00:44:17.685Z,53
2023-11-30T00:45:23.737Z,53
2023-11-30T00:46:29.849Z,53
2023-11-30T00:47:35.967Z,53
2023-11-30T00:48:42.080Z,53
2023-11-30T00:49:48.239Z,53
2023-11-30T00:50:54.306Z,53
2023-11-30T00:52:00.423Z,53
2023-11-30T00:53:06.538Z,53
2023-11-30T00:54:12.760Z,53
2023-11-30T00:55:17.788Z,53
2023-11-30T00:56:23.889Z,53
2023-11-30T00:57:30.089Z,53
2023-11-30T00:58:36.136Z,53
2023-11-30T00:59:42.232Z,53
2023-11-30T01:00:48.413Z,53
2023-11-30T01:01:54.480Z,53
2023-11-30T01:03:00.656Z,53
2023-11-30T01:04:06.694Z,53
2023-11-30T01:05:12.810Z,53
2023-11-30T01:06:19.009Z,53
2023-11-30T01:07:25.169Z,53
2023-11-30T01:08:31.146Z,53
2023-11-30T01:09:36.260Z,53
2023-11-30T01:10:42.485Z,53
2023-11-30T01:11:48.519Z,53
2023-11-30T01:12:54.629Z,53
2023-11-30T01:14:00.798Z,53
2023-11-30T01:15:06.838Z,53
2023-11-30T01:16:13.025Z,53
2023-11-30T01:17:19.179Z,53
2023-11-30T01:18:25.188Z,53
2023-11-30T01:19:31.416Z,53
2023-11-30T01:20:37.414Z,53
2023-11-30T01:21:43.583Z,53
2023-11-30T01:22:49.645Z,53
2023-11-30T01:23:54.776Z,53
2023-11-30T01:25:00.901Z,53
2023-11-30T01:26:07.042Z,53
2023-11-30T01:27:13.128Z,53
2023-11-30T01:28:19.225Z,53
2023-11-30T01:29:25.339Z,53
2023-11-30T01:30:31.492Z,53
2023-11-30T01:31:37.578Z,53
2023-11-30T01:32:43.685Z,53
2023-11-30T01:33:49.819Z,53
2023-11-30T01:34:56.006Z,53
2023-11-30T01:36:02.021Z,53
2023-11-30T01:37:08.133Z,53
2023-11-30T01:38:13.319Z,53
2023-11-30T01:39:19.375Z,53
2023-11-30T01:40:25.502Z,53
2023-11-30T01:41:31.606Z,53
2023-11-30T01:42:37.736Z,53
2023-11-30T01:43:43.831Z,53
2023-11-30T01:44:49.945Z,53
2023-11-30T01:45:56.153Z,53
2023-11-30T01:47:02.180Z,53
2023-11-30T01:48:08.306Z,53
2023-11-30T01:49:14.396Z,53
2023-11-30T01:50:20.523Z,53
2023-11-30T01:51:26.632Z,53
2023-11-30T01:52:31.827Z,53
2023-11-30T01:53:37.878Z,53
2023-11-30T01:54:44.062Z,53
2023-11-30T01:55:50.217Z,53
2023-11-30T01:56:56.230Z,53
2023-11-30T01:58:02.333Z,53
2023-11-30T01:59:08.452Z,53
2023-11-30T02:00:14.566Z,53
2023-11-30T02:01:20.770Z,53
2023-11-30T02:02:26.874Z,53
2023-11-30T02:03:32.894Z,53
2023-11-30T02:04:39.082Z,53
2023-11-30T02:05:45.128Z,53
2023-11-30T02:06:50.247Z,53
2023-11-30T02:07:56.372Z,53
2023-11-30T02:09:02.519Z,53
2023-11-30T02:10:08.591Z,53
2023-11-30T02:11:14.737Z,53
2023-11-30T02:12:20.846Z,53
2023-11-30T02:13:27.062Z,53
2023-11-30T02:14:33.090Z,53
2023-11-30T02:15:39.163Z,53
2023-11-30T02:16:45.281Z,53
2023-11-30T02:17:51.389Z,53
2023-11-30T02:18:57.539Z,53
2023-11-30T02:20:03.606Z,53
2023-11-30T02:21:08.761Z,53
2023-11-30T02:22:14.864Z,53
2023-11-30T02:23:20.968Z,53
2023-11-30T02:24:27.091Z,53
2023-11-30T02:25:33.197Z,53
2023-11-30T02:26:39.472Z,53
2023-11-30T02:27:45.420Z,53
2023-11-30T02:29:57.666Z,53
2023-11-30T02:31:03.920Z,53
2023-11-30T02:32:09.938Z,53
2023-11-30T02:33:15.991Z,53
2023-11-30T02:34:22.110Z,53
2023-11-30T02:35:27.265Z,53
2023-11-30T02:36:33.358Z,53
2023-11-30T02:37:39.483Z,53
2023-11-30T02:38:45.620Z,53
2023-11-30T02:39:51.700Z,53
2023-11-30T02:40:57.822Z,53
2023-11-30T02:42:03.954Z,53
2023-11-30T02:43:10.134Z,53
2023-11-30T02:44:16.150Z,53
2023-11-30T02:45:22.321Z,53
2023-11-30T02:46:28.443Z,53
2023-11-30T02:47:34.493Z,53
2023-11-30T02:48:40.638Z,53
2023-11-30T02:49:46.731Z,53
2023-11-30T02:50:51.878Z,53
2023-11-30T02:51:57.962Z,53
2023-11-30T02:53:04.120Z,53
2023-11-30T02:54:10.192Z,53
2023-11-30T02:55:16.301Z,53
2023-11-30T02:56:22.499Z,53
2023-11-30T02:57:28.565Z,53
2023-11-30T02:58:34.651Z,53
2023-11-30T02:59:40.788Z,53
2023-11-30T03:00:47.066Z,53
2023-11-30T03:01:52.988Z,53
2023-11-30T03:02:59.118Z,53
2023-11-30T03:04:05.296Z,53
2023-11-30T03:05:11.340Z,53
2023-11-30T03:06:16.624Z,53
2023-11-30T03:07:22.610Z,53
2023-11-30T03:08:28.684Z,53
2023-11-30T03:09:34.810Z,53
2023-11-30T03:10:40.912Z,53
2023-11-30T03:11:47.113Z,53
2023-11-30T03:12:53.269Z,53
2023-11-30T03:13:59.299Z,53
2023-11-30T03:15:05.390Z,53
2023-11-30T03:16:11.487Z,53
2023-11-30T03:17:17.731Z,53
2023-11-30T03:18:23.714Z,53
2023-11-30T03:19:29.831Z,53
2023-11-30T03:20:34.964Z,53
2023-11-30T03:21:41.064Z,53
2023-11-30T03:22:47.206Z,53
2023-11-30T03:23:53.523Z,53
2023-11-30T03:24:59.422Z,53
2023-11-30T03:26:05.687Z,53
2023-11-30T03:27:11.717Z,53
2023-11-30T03:28:17.933Z,53
2023-11-30T03:30:30.101Z,53
2023-11-30T03:31:36.095Z,53
2023-11-30T03:32:42.295Z,53
2023-11-30T03:33:48.320Z,53
2023-11-30T03:34:53.453Z,53
2023-11-30T03:35:59.566Z,53
2023-11-30T03:37:05.678Z,53
2023-11-30T03:38:11.793Z,53
2023-11-30T03:39:17.903Z,53
2023-11-30T03:40:24.054Z,53
2023-11-30T03:41:30.194Z,53
2023-11-30T03:42:36.285Z,53
2023-11-30T03:43:42.423Z,53
2023-11-30T03:44:48.574Z,53
2023-11-30T03:45:54.592Z,53
2023-11-30T03:47:00.712Z,53
2023-11-30T03:48:06.904Z,53
2023-11-30T03:49:12.925Z,53
2023-11-30T03:50:18.257Z,53
2023-11-30T03:51:24.303Z,53
2023-11-30T03:52:30.289Z,53
2023-11-30T03:53:36.443Z,53
2023-11-30T03:54:42.543Z,53
2023-11-30T03:55:48.726Z,53
2023-11-30T03:56:54.789Z,53
2023-11-30T03:58:00.980Z,53
2023-11-30T03:59:06.972Z,53
2023-11-30T04:00:13.139Z,53
2023-11-30T04:01:19.362Z,53
2023-11-30T04:02:25.372Z,53
2023-11-30T04:03:31.509Z,53
2023-11-30T04:04:37.565Z,53
2023-11-30T04:05:42.664Z,53
2023-11-30T04:06:48.786Z,53
2023-11-30T04:07:54.962Z,53
2023-11-30T04:09:01.016Z,53
2023-11-30T04:10:07.242Z,53
2023-11-30T04:11:13.242Z,53
2023-11-30T04:12:19.351Z,53
2023-11-30T04:13:25.693Z,53
2023-11-30T04:14:31.590Z,53
2023-11-30T04:15:37.686Z,53
2023-11-30T04:16:43.818Z,53
2023-11-30T04:17:49.922Z,53
2023-11-30T04:18:56.024Z,53
2023-11-30T04:20:01.285Z,53
2023-11-30T04:21:07.281Z,53
2023-11-30T04:22:13.533Z,53
2023-11-30T04:23:18.664Z,53
2023-11-30T04:24:24.798Z,53
2023-11-30T04:25:30.876Z,53
2023-11-30T04:26:36.957Z,53
2023-11-30T04:27:43.091Z,53
2023-11-30T04:28:49.228Z,53
2023-11-30T04:29:55.306Z,53
2023-11-30T04:31:01.439Z,53
2023-11-30T04:32:07.445Z,53
2023-11-30T04:33:13.542Z,53
2023-11-30T04:34:19.809Z,53
2023-11-30T04:36:31.885Z,53
2023-11-30T04:38:43.237Z,53
2023-11-30T04:39:49.410Z,53
2023-11-30T04:40:55.430Z,53
2023-11-30T04:42:01.471Z,53
2023-11-30T04:43:07.801Z,53
2023-11-30T04:44:13.727Z,53
2023-11-30T04:45:19.908Z,53
2023-11-30T04:46:25.943Z,53
2023-11-30T04:47:32.044Z,53
2023-11-30T04:48:38.215Z,53
2023-11-30T04:49:44.399Z,53
2023-11-30T04:50:50.395Z,53
2023-11-30T04:51:55.630Z,53
2023-11-30T04:53:01.775Z,53
2023-11-30T04:54:07.819Z,53
2023-11-30T04:55:13.999Z,53
2023-11-30T04:56:20.184Z,53
2023-11-30T04:57:26.323Z,53
2023-11-30T04:58:32.381Z,53
2023-11-30T04:59:38.470Z,53
2023-11-30T05:00:44.421Z,53
2023-11-30T05:01:50.543Z,53
2023-11-30T05:02:56.720Z,53
2023-11-30T05:04:02.801Z,53
2023-11-30T05:05:08.930Z,53
2023-11-30T05:06:14.092Z,53
2023-11-30T05:07:20.261Z,53
2023-11-30T05:08:26.436Z,53
2023-11-30T05:09:32.487Z,53
2023-11-30T05:10:38.743Z,53
2023-11-30T05:11:44.578Z,53
2023-11-30T05:12:50.780Z,53
2023-11-30T05:13:56.875Z,53
2023-11-30T05:15:02.920Z,53
2023-11-30T05:16:09.131Z,53
2023-11-30T05:17:15.240Z,53
2023-11-30T05:18:21.387Z,53
2023-11-30T05:19:27.542Z,53
2023-11-30T05:20:32.689Z,53
2023-11-30T05:21:38.620Z,53
2023-11-30T05:22:44.845Z,53
2023-11-30T05:23:51.060Z,53
2023-11-30T05:24:57.044Z,53
2023-11-30T05:26:03.154Z,53
2023-11-30T05:27:09.208Z,53
2023-11-30T05:28:15.298Z,53
2023-11-30T05:29:21.592Z,53
2023-11-30T05:30:27.527Z,53
2023-11-30T05:31:33.650Z,53
2023-11-30T05:32:39.781Z,53
2023-11-30T05:33:45.883Z,53
2023-11-30T05:34:51.193Z,53
2023-11-30T05:35:57.112Z,53
2023-11-30T05:37:03.233Z,53
2023-11-30T05:38:09.350Z,53
2023-11-30T05:39:15.458Z,53
2023-11-30T05:40:21.578Z,53
2023-11-30T05:41:27.688Z,53
2023-11-30T05:42:33.799Z,53
2023-11-30T05:43:39.911Z,53
2023-11-30T05:44:46.109Z,53
2023-11-30T05:45:52.136Z,53
2023-11-30T05:46:58.244Z,53
2023-11-30T05:48:04.430Z,53
2023-11-30T05:49:09.498Z,53
2023-11-30T05:50:15.614Z,53
2023-11-30T05:51:21.806Z,53
2023-11-30T05:52:27.849Z,53
2023-11-30T05:53:33.960Z,53
2023-11-30T05:54:40.061Z,53
2023-11-30T05:55:46.228Z,53
2023-11-30T05:56:52.290Z,53
2023-11-30T05:57:58.515Z,53
2023-11-30T05:59:04.508Z,53
2023-11-30T06:00:10.645Z,53
2023-11-30T06:01:16.741Z,53
2023-11-30T06:02:22.858Z,53
2023-11-30T06:03:28.039Z,53
2023-11-30T06:04:34.212Z,53
2023-11-30T06:05:40.235Z,53
2023-11-30T06:06:46.407Z,53
2023-11-30T06:07:52.505Z,53
2023-11-30T06:10:04.726Z,53
2023-11-30T06:11:10.785Z,53
2023-11-30T06:12:16.894Z,53
2023-11-30T06:13:23.013Z,53
2023-11-30T06:14:29.244Z,53
2023-11-30T06:15:35.255Z,53
2023-11-30T06:16:41.398Z,53
2023-11-30T06:17:46.540Z,53
2023-11-30T06:18:52.667Z,53
2023-11-30T06:19:58.740Z,53
2023-11-30T06:21:04.902Z,53
2023-11-30T06:22:10.991Z,53
2023-11-30T06:23:17.141Z,53
2023-11-30T06:24:23.172Z,53
2023-11-30T06:25:29.291Z,53
2023-11-30T06:26:35.388Z,53
2023-11-30T06:27:41.507Z,53
2023-11-30T06:28:47.622Z,53
2023-11-30T06:29:53.930Z,53
2023-11-30T06:30:59.918Z,53
2023-11-30T06:32:04.998Z,53
2023-11-30T06:33:11.235Z,53
2023-11-30T06:34:17.297Z,53
2023-11-30T06:35:23.372Z,53
2023-11-30T06:36:29.436Z,53
2023-11-30T06:37:35.562Z,53
2023-11-30T06:38:41.668Z,53
2023-11-30T06:39:47.837Z,53
2023-11-30T06:40:53.906Z,53
2023-11-30T06:42:00.044Z,53
2023-11-30T06:43:06.146Z,53
2023-11-30T06:44:12.248Z,53
2023-11-30T06:45:18.347Z,53
2023-11-30T06:46:23.553Z,53
2023-11-30T06:47:29.589Z,53
2023-11-30T06:48:35.713Z,53
2023-11-30T06:49:41.821Z,53
2023-11-30T06:50:47.945Z,53
2023-11-30T06:51:54.054Z,53
2023-11-30T06:53:00.166Z,53
2023-11-30T06:54:06.283Z,53
2023-11-30T06:55:12.398Z,53
2023-11-30T06:56:18.509Z,53
2023-11-30T06:57:24.701Z,53
2023-11-30T06:58:30.725Z,53
2023-11-30T06:59:36.867Z,53
2023-11-30T07:00:41.965Z,53
2023-11-30T07:01:48.088Z,53
2023-11-30T07:02:54.388Z,53
2023-11-30T07:04:00.312Z,53
2023-11-30T07:05:06.484Z,53
2023-11-30T07:06:12.566Z,53
2023-11-30T07:07:18.708Z,53
2023-11-30T07:08:24.836Z,53
2023-11-30T07:09:31.259Z,53
2023-11-30T07:10:37.323Z,53
2023-11-30T07:11:43.334Z,53
2023-11-30T07:12:49.500Z,53
2023-11-30T07:13:55.353Z,53
2023-11-30T07:15:00.747Z,53
2023-11-30T07:16:06.697Z,53
2023-11-30T07:17:12.826Z,53
2023-11-30T07:18:18.980Z,53
2023-11-30T07:19:25.096Z,53
2023-11-30T07:20:31.141Z,53
2023-11-30T07:21:37.355Z,53
2023-11-30T07:22:43.448Z,53
2023-11-30T07:23:49.455Z,53
2023-11-30T07:24:55.487Z,53
2023-11-30T07:26:01.644Z,53
2023-11-30T07:27:07.735Z,53
2023-11-30T07:28:13.868Z,53
2023-11-30T07:29:18.969Z,53
2023-11-30T07:30:25.072Z,53
2023-11-30T07:31:31.381Z,53
2023-11-30T07:32:37.412Z,53
2023-11-30T07:33:43.410Z,53
2023-11-30T07:34:49.582Z,53
2023-11-30T07:35:55.684Z,53
2023-11-30T07:37:01.859Z,53
2023-11-30T07:38:07.922Z,53
2023-11-30T07:39:13.985Z,53
2023-11-30T07:40:20.096Z,53
2023-11-30T07:41:26.263Z,53
2023-11-30T07:43:38.461Z,53
2023-11-30T07:44:43.603Z,53
2023-11-30T07:45:49.825Z,53
2023-11-30T07:46:55.813Z,53
2023-11-30T07:48:02.002Z,53
2023-11-30T07:49:08.115Z,53
2023-11-30T07:50:14.207Z,53
2023-11-30T07:51:20.282Z,53
2023-11-30T07:53:32.515Z,53
2023-11-30T07:54:38.600Z,53
2023-11-30T07:55:44.710Z,53
2023-11-30T07:56:50.830Z,53
2023-11-30T07:57:56.954Z,53
2023-11-30T07:59:02.336Z,53
2023-11-30T08:00:08.316Z,53
2023-11-30T08:01:14.306Z,53
2023-11-30T08:02:20.418Z,53
2023-11-30T08:03:26.645Z,53
2023-11-30T08:04:31.720Z,53
2023-11-30T08:05:37.770Z,53
2023-11-30T08:06:44.004Z,53
2023-11-30T08:07:50.164Z,53
2023-11-30T08:08:56.207Z,53
2023-11-30T08:10:02.231Z,53
2023-11-30T08:11:08.426Z,53
2023-11-30T08:12:14.536Z,53
2023-11-30T08:13:20.846Z,53
2023-11-30T08:14:26.997Z,53
2023-11-30T08:15:33.125Z,53
2023-11-30T08:16:38.991Z,53
2023-11-30T08:18:51.417Z,53
2023-11-30T08:21:02.457Z,53
2023-11-30T08:22:08.595Z,53
2023-11-30T08:23:14.747Z,53
2023-11-30T08:24:20.810Z,53
2023-11-30T08:25:26.984Z,53
2023-11-30T08:26:33.085Z,53
2023-11-30T08:27:39.118Z,53
2023-11-30T08:28:45.235Z,53
2023-11-30T08:29:51.411Z,53
2023-11-30T08:30:57.551Z,53
2023-11-30T08:32:03.557Z,53
2023-11-30T08:33:09.824Z,53
2023-11-30T08:34:14.826Z,53
2023-11-30T08:35:20.883Z,53
2023-11-30T08:36:27.089Z,53
2023-11-30T08:37:33.165Z,53.5
2023-11-30T08:38:39.232Z,53.5
2023-11-30T08:39:45.504Z,53.5
2023-11-30T08:40:51.512Z,53.5
2023-11-30T08:41:57.574Z,53.5
2023-11-30T08:43:03.672Z,53.5
2023-11-30T08:44:09.791Z,53.5
2023-11-30T08:45:16.151Z,53.5
2023-11-30T08:46:22.020Z,53.5
2023-11-30T08:47:28.330Z,53
2023-11-30T08:48:33.316Z,53
2023-11-30T08:49:39.389Z,53
2023-11-30T08:50:45.610Z,52.5
2023-11-30T08:51:51.599Z,52.5
2023-11-30T08:52:57.783Z,52
2023-11-30T08:54:03.955Z,52
2023-11-30T08:55:10.000Z,51.5
2023-11-30T08:56:16.057Z,51.5
2023-11-30T08:57:22.208Z,51.5
2023-11-30T08:58:28.309Z,51.5
2023-11-30T08:59:34.436Z,51.5
2023-11-30T09:00:40.643Z,52
2023-11-30T09:01:46.632Z,52
2023-11-30T09:02:51.887Z,52
2023-11-30T09:03:57.875Z,52
2023-11-30T09:05:04.153Z,52
2023-11-30T09:06:10.196Z,52
2023-11-30T09:07:16.297Z,52
2023-11-30T09:08:22.556Z,52
2023-11-30T09:09:28.609Z,52
2023-11-30T09:10:34.871Z,52
2023-11-30T09:11:40.716Z,52
2023-11-30T09:12:47.069Z,52
2023-11-30T09:13:53.220Z,52
2023-11-30T09:14:59.015Z,52
2023-11-30T09:17:11.256Z,52
2023-11-30T09:18:16.355Z,52
2023-11-30T09:19:22.654Z,52
2023-11-30T09:20:28.679Z,52
2023-11-30T09:21:34.807Z,52
2023-11-30T09:22:41.079Z,52
2023-11-30T09:23:46.968Z,52
2023-11-30T09:24:53.233Z,52
2023-11-30T09:25:59.272Z,52
2023-11-30T09:27:05.327Z,52
2023-11-30T09:28:11.384Z,52
2023-11-30T09:29:17.671Z,52
2023-11-30T09:30:23.766Z,52
2023-11-30T09:31:29.756Z,52
2023-11-30T09:32:34.902Z,52
2023-11-30T09:33:41.015Z,52
2023-11-30T09:34:47.258Z,52
2023-11-30T09:35:53.469Z,52
2023-11-30T09:36:59.304Z,52
2023-11-30T09:38:05.702Z,52
2023-11-30T09:39:11.756Z,52
2023-11-30T09:40:17.898Z,52
2023-11-30T09:41:23.866Z,52
2023-11-30T09:42:29.889Z,52
2023-11-30T09:43:36.058Z,52
2023-11-30T09:44:42.232Z,52
2023-11-30T09:46:54.489Z,52.5
2023-11-30T09:47:59.468Z,52.5
2023-11-30T09:49:05.663Z,52
2023-11-30T09:50:11.795Z,52
2023-11-30T09:51:17.862Z,51.5
2023-11-30T09:52:23.932Z,51.5
2023-11-30T09:53:30.067Z,51.5
2023-11-30T09:54:36.158Z,51
2023-11-30T09:55:42.426Z,51
2023-11-30T09:56:48.375Z,51
2023-11-30T09:57:54.579Z,51
2023-11-30T09:59:00.658Z,50.5
2023-11-30T10:00:06.876Z,50.5
2023-11-30T10:01:12.966Z,50.5
2023-11-30T10:02:18.123Z,50.5
2023-11-30T10:03:24.267Z,50.5
2023-11-30T10:04:30.279Z,50.5
2023-11-30T10:05:36.394Z,50.5
2023-11-30T10:06:42.422Z,50.5
2023-11-30T10:07:48.656Z,50.5
2023-11-30T10:08:54.941Z,50.5
2023-11-30T10:10:00.981Z,50.5
2023-11-30T10:11:07.066Z,51
2023-11-30T10:12:13.173Z,51
2023-11-30T10:13:19.171Z,51
2023-11-30T10:14:25.410Z,51
2023-11-30T10:15:31.517Z,51
2023-11-30T10:16:37.564Z,51
2023-11-30T10:17:42.720Z,51
2023-11-30T10:18:48.688Z,51
2023-11-30T10:19:54.964Z,51
2023-11-30T10:21:01.172Z,51
2023-11-30T10:22:07.206Z,51
2023-11-30T10:23:13.175Z,51
2023-11-30T10:24:19.378Z,51
2023-11-30T10:25:25.370Z,51
2023-11-30T10:26:31.722Z,51
2023-11-30T10:28:43.827Z,50.5
2023-11-30T10:29:49.819Z,50.5
2023-11-30T10:30:55.931Z,50.5
2023-11-30T10:32:01.257Z,50.5
2023-11-30T10:34:13.415Z,50.5
2023-11-30T10:35:19.651Z,50.5
2023-11-30T10:36:25.547Z,50.5
2023-11-30T10:37:31.730Z,50.5
2023-11-30T10:38:37.896Z,51
2023-11-30T10:39:43.866Z,51
2023-11-30T10:41:56.395Z,51
2023-11-30T10:43:02.314Z,51
2023-11-30T10:44:08.383Z,51
2023-11-30T10:45:13.536Z,51
2023-11-30T10:46:18.684Z,51
2023-11-30T10:47:23.701Z,51
2023-11-30T10:48:30.053Z,51
2023-11-30T10:49:36.129Z,51
2023-11-30T10:50:42.146Z,51
2023-11-30T10:51:48.284Z,51
2023-11-30T10:52:54.488Z,51
2023-11-30T10:54:00.678Z,51
2023-11-30T10:55:06.742Z,51
2023-11-30T10:56:12.623Z,51
2023-11-30T10:57:19.013Z,51
2023-11-30T10:58:24.880Z,51
2023-11-30T10:59:31.121Z,51
2023-11-30T11:00:36.114Z,51
2023-11-30T11:01:41.405Z,51
2023-11-30T11:02:47.460Z,51
2023-11-30T11:03:53.803Z,51
2023-11-30T11:04:59.857Z,51
2023-11-30T11:06:05.682Z,51
2023-11-30T11:07:12.107Z,51
2023-11-30T11:08:17.937Z,51
2023-11-30T11:09:24.029Z,51
2023-11-30T11:10:30.132Z,51
2023-11-30T11:11:36.257Z,51
2023-11-30T11:12:42.462Z,51
2023-11-30T11:13:48.494Z,51
2023-11-30T11:14:54.600Z,51
2023-11-30T11:15:59.788Z,51
2023-11-30T11:17:06.047Z,51
2023-11-30T11:18:12.070Z,51
2023-11-30T11:19:18.286Z,51
2023-11-30T11:20:24.280Z,51
2023-11-30T11:21:30.501Z,51
2023-11-30T11:22:35.498Z,51
2023-11-30T11:23:40.903Z,51
2023-11-30T11:24:46.713Z,51
2023-11-30T11:25:52.960Z,51
2023-11-30T11:26:59.132Z,51
2023-11-30T11:28:05.199Z,51
2023-11-30T11:29:11.376Z,51
2023-11-30T11:30:17.320Z,51
2023-11-30T11:31:23.614Z,51
2023-11-30T11:32:29.533Z,51
2023-11-30T11:33:35.820Z,51
2023-11-30T11:34:41.913Z,51
2023-11-30T11:35:47.811Z,51
2023-11-30T11:36:53.999Z,51
2023-11-30T11:37:59.173Z,51
2023-11-30T11:39:05.382Z,51
2023-11-30T11:40:11.409Z,51
2023-11-30T11:41:17.478Z,51
2023-11-30T11:42:23.735Z,51
2023-11-30T11:43:29.970Z,51
2023-11-30T11:44:34.904Z,51
2023-11-30T11:45:39.910Z,51.5
2023-11-30T11:46:46.089Z,51.5
2023-11-30T11:47:51.269Z,51.5
2023-11-30T11:48:57.279Z,51
2023-11-30T11:51:09.644Z,51.5
2023-11-30T11:53:21.885Z,51.5
2023-11-30T11:54:27.841Z,51.5
2023-11-30T11:55:33.952Z,51.5
2023-11-30T11:56:40.174Z,51.5
2023-11-30T11:57:46.465Z,51.5
2023-11-30T11:58:52.571Z,51.5
2023-11-30T11:59:57.629Z,51.5
2023-11-30T12:01:03.547Z,51.5
2023-11-30T12:02:08.780Z,51.5
2023-11-30T12:03:14.810Z,51.5
2023-11-30T12:04:20.957Z,51.5
2023-11-30T12:05:27.201Z,51.5
2023-11-30T12:06:33.164Z,51.5
2023-11-30T12:07:39.274Z,51.5
2023-11-30T12:08:45.532Z,51.5
2023-11-30T12:09:51.486Z,51.5
2023-11-30T12:10:56.784Z,51.5
2023-11-30T12:12:01.760Z,51.5
2023-11-30T12:13:07.069Z,51.5
2023-11-30T12:14:13.057Z,51.5
2023-11-30T12:15:19.309Z,51.5
2023-11-30T12:16:25.368Z,51.5
2023-11-30T12:17:31.500Z,51.5
2023-11-30T12:18:37.513Z,51.5
2023-11-30T12:19:43.598Z,51.5
2023-11-30T12:20:49.668Z,51.5
2023-11-30T12:21:55.825Z,51.5
2023-11-30T12:23:01.896Z,51.5
2023-11-30T12:24:08.008Z,51.5
2023-11-30T12:25:14.131Z,51.5
2023-11-30T12:26:20.345Z,51.5
2023-11-30T12:27:25.367Z,51.5
2023-11-30T12:29:37.616Z,51
2023-11-30T12:30:43.752Z,51
2023-11-30T12:31:49.842Z,51
2023-11-30T12:32:56.058Z,51
2023-11-30T12:34:02.301Z,51
2023-11-30T12:35:07.436Z,51
2023-11-30T12:36:12.499Z,51
2023-11-30T12:37:18.762Z,51
2023-11-30T12:38:24.905Z,51
2023-11-30T12:39:30.908Z,51
2023-11-30T12:40:37.073Z,51
2023-11-30T12:41:43.224Z,51
2023-11-30T12:42:49.303Z,51
2023-11-30T12:43:55.415Z,51
2023-11-30T12:45:01.449Z,51
2023-11-30T12:46:07.675Z,51
2023-11-30T12:47:13.740Z,51
2023-11-30T12:48:19.772Z,51
2023-11-30T12:49:25.991Z,51
2023-11-30T12:50:31.045Z,51
2023-11-30T12:51:37.219Z,51
2023-11-30T12:52:43.359Z,51
2023-11-30T12:53:49.397Z,51
2023-11-30T12:54:55.627Z,51
2023-11-30T12:56:01.693Z,51
2023-11-30T12:57:06.911Z,51
2023-11-30T12:58:12.066Z,51
2023-11-30T12:59:17.085Z,51
2023-11-30T13:00:23.219Z,51
2023-11-30T13:01:29.293Z,51
2023-11-30T13:02:35.372Z,51
2023-11-30T13:03:41.563Z,51
2023-11-30T13:04:47.354Z,51
2023-11-30T13:05:53.767Z,51
2023-11-30T13:06:59.805Z,51
2023-11-30T13:08:05.993Z,51
2023-11-30T13:09:12.130Z,51
2023-11-30T13:10:17.922Z,51
2023-11-30T13:11:24.036Z,51
2023-11-30T13:12:30.168Z,51
2023-11-30T13:13:36.258Z,51
2023-11-30T13:14:42.384Z,51
2023-11-30T13:15:47.688Z,51
2023-11-30T13:16:53.795Z,51
2023-11-30T13:17:59.974Z,51.5
2023-11-30T13:19:05.970Z,51
2023-11-30T13:20:11.337Z,51
2023-11-30T13:22:22.230Z,51
2023-11-30T13:23:28.721Z,51
2023-11-30T13:24:34.570Z,51
2023-11-30T13:25:40.881Z,51
2023-11-30T13:26:46.878Z,51
2023-11-30T13:27:52.862Z,51
2023-11-30T13:28:58.922Z,51
2023-11-30T13:30:05.299Z,51
2023-11-30T13:31:11.411Z,51
2023-11-30T13:32:17.367Z,51
2023-11-30T13:33:23.363Z,51
2023-11-30T13:34:29.580Z,51
2023-11-30T13:35:35.887Z,51
2023-11-30T13:36:41.030Z,51
2023-11-30T13:37:47.186Z,51
2023-11-30T13:38:53.229Z,51
2023-11-30T13:39:59.411Z,51
2023-11-30T13:41:05.287Z,51
2023-11-30T13:42:11.523Z,51
2023-11-30T13:43:16.689Z,51
2023-11-30T13:44:21.875Z,51
2023-11-30T13:45:26.983Z,51
2023-11-30T13:46:33.119Z,51
2023-11-30T13:47:39.284Z,51
2023-11-30T13:48:45.350Z,51
2023-11-30T13:49:51.500Z,51
2023-11-30T13:50:57.565Z,51
2023-11-30T13:52:03.733Z,51
2023-11-30T13:53:09.848Z,51
2023-11-30T13:54:15.775Z,51
2023-11-30T13:55:21.996Z,51
2023-11-30T13:56:28.110Z,51
2023-11-30T13:57:34.110Z,51
2023-11-30T13:58:40.353Z,51
2023-11-30T13:59:45.522Z,51
2023-11-30T14:00:51.613Z,51
2023-11-30T14:01:57.793Z,51
2023-11-30T14:03:03.903Z,51
2023-11-30T14:04:09.981Z,51
2023-11-30T14:05:15.770Z,51
2023-11-30T14:06:21.175Z,51
2023-11-30T14:07:26.364Z,51
2023-11-30T14:08:32.510Z,51
2023-11-30T14:09:38.552Z,51
2023-11-30T14:10:44.685Z,51
2023-11-30T14:11:50.728Z,51
2023-11-30T14:12:56.904Z,51
2023-11-30T14:14:03.059Z,51
2023-11-30T14:15:09.196Z,51
2023-11-30T14:16:15.076Z,51
2023-11-30T14:17:21.320Z,51
2023-11-30T14:18:27.147Z,51
2023-11-30T14:19:33.568Z,51
2023-11-30T14:20:39.679Z,51
2023-11-30T14:21:44.835Z,51
2023-11-30T14:22:50.906Z,51
2023-11-30T14:23:57.121Z,51
2023-11-30T14:26:09.286Z,51
2023-11-30T14:27:15.434Z,51
2023-11-30T14:28:21.474Z,51
2023-11-30T14:29:26.695Z,51
2023-11-30T14:30:31.806Z,51
2023-11-30T14:31:38.000Z,51.5
2023-11-30T14:32:44.055Z,51
2023-11-30T14:33:50.113Z,51
2023-11-30T14:34:56.274Z,51
2023-11-30T14:36:02.376Z,51
2023-11-30T14:37:08.342Z,51
2023-11-30T14:38:14.640Z,51
2023-11-30T14:39:20.383Z,51.5
2023-11-30T14:40:26.757Z,51.5
2023-11-30T14:41:33.002Z,51
2023-11-30T14:42:39.080Z,51
2023-11-30T14:43:45.134Z,51
2023-11-30T14:44:50.185Z,51
2023-11-30T14:45:56.237Z,51.5
2023-11-30T14:47:02.456Z,51.5
2023-11-30T14:48:08.684Z,51.5
2023-11-30T14:49:14.427Z,51.5
2023-11-30T14:50:20.837Z,51.5
2023-11-30T14:51:25.824Z,51.5
2023-11-30T14:52:31.083Z,52
2023-11-30T14:53:37.212Z,52.5
2023-11-30T14:54:43.075Z,52.5
2023-11-30T14:55:49.355Z,53
2023-11-30T14:56:55.248Z,53.5
2023-11-30T14:58:01.764Z,54
2023-11-30T14:59:07.796Z,54
2023-11-30T15:00:13.943Z,54.5
2023-11-30T15:01:19.984Z,54.5
2023-11-30T15:02:26.217Z,54.5
2023-11-30T15:03:32.255Z,54.5
2023-11-30T15:04:38.351Z,54.5
2023-11-30T15:05:44.571Z,54.5
2023-11-30T15:06:49.580Z,54.5
2023-11-30T15:07:55.765Z,54.5
2023-11-30T15:09:01.891Z,54.5
2023-11-30T15:10:07.891Z,54.5
2023-11-30T15:11:14.149Z,54.5
2023-11-30T15:12:20.140Z,54.5
2023-11-30T15:13:25.294Z,54.5
2023-11-30T15:14:30.478Z,54.5
2023-11-30T15:15:36.447Z,54.5
2023-11-30T15:16:42.485Z,54.5
2023-11-30T15:17:48.838Z,54.5
2023-11-30T15:18:54.907Z,54.5
2023-11-30T15:20:01.015Z,54.5
2023-11-30T15:21:07.116Z,54.5
2023-11-30T15:22:13.172Z,54.5
2023-11-30T15:23:19.423Z,54.5
2023-11-30T15:24:25.360Z,54.5
2023-11-30T15:25:31.358Z,54.5
2023-11-30T15:26:36.699Z,54.5
2023-11-30T15:27:42.575Z,54.5
2023-11-30T15:28:48.735Z,54.5
2023-11-30T15:29:55.000Z,54.5
2023-11-30T15:31:01.260Z,54
2023-11-30T15:32:07.318Z,54
2023-11-30T15:33:13.295Z,54
2023-11-30T15:34:19.445Z,54.5
2023-11-30T15:35:25.480Z,54.5
2023-11-30T15:36:31.757Z,54.5
2023-11-30T15:37:37.531Z,54.5
2023-11-30T15:38:43.998Z,54.5
2023-11-30T15:39:50.101Z,54.5
2023-11-30T15:40:55.166Z,54.5
2023-11-30T15:42:01.336Z,54.5
2023-11-30T15:43:07.418Z,54.5
2023-11-30T15:44:13.550Z,54
2023-11-30T15:45:19.591Z,54
2023-11-30T15:46:25.618Z,54.5
2023-11-30T15:47:31.882Z,54.5
2023-11-30T15:48:38.022Z,54
2023-11-30T15:49:44.123Z,54
2023-11-30T15:50:50.188Z,54
2023-11-30T15:51:56.369Z,54
2023-11-30T15:53:02.135Z,54